Time;durP1;ratioP1;P1;durP2;ratioP2;P2;SDS_P1;SDS_P2;PMS_P1;PMS_P2;Temp;Humidity;BMP_temperature;BMP_pressure;BME280_temperature;BME280_humidity;BME280_pressure;Samples;Min_cycle;Max_cycle;Signal;HPM_P1;HPM_P2
2023/04/05 00:00:29;;;;;;;19.80;10.95;;;4.40;99.90;;;;;;5106251;28;20313;-72
2023/04/05 00:02:58;;;;;;;20.50;11.20;;;4.40;99.90;;;;;;5098488;28;20447;-72
2023/04/05 00:05:30;;;;;;;20.48;11.50;;;4.40;99.90;;;;;;5099676;28;20023;-72
2023/04/05 00:07:56;;;;;;;18.65;10.82;;;4.40;99.90;;;;;;5108766;28;20055;-72
2023/04/05 00:10:22;;;;;;;22.33;11.68;;;4.30;99.90;;;;;;5113071;28;20399;-71
2023/04/05 00:12:49;;;;;;;20.30;11.10;;;4.30;99.90;;;;;;5105427;28;20107;-71
2023/04/05 00:15:15;;;;;;;17.08;10.73;;;4.30;99.90;;;;;;5115204;28;20481;-72
2023/04/05 00:17:42;;;;;;;20.10;11.23;;;4.30;99.90;;;;;;5105431;28;20050;-71
2023/04/05 00:20:10;;;;;;;19.35;11.68;;;4.30;99.90;;;;;;5110185;28;20028;-71
2023/04/05 00:22:37;;;;;;;19.45;11.43;;;4.20;99.90;;;;;;5114729;28;20050;-72
2023/04/05 00:25:03;;;;;;;20.50;11.52;;;4.20;99.90;;;;;;5108022;28;20036;-72
2023/04/05 00:27:29;;;;;;;24.80;11.82;;;4.20;99.90;;;;;;5106017;28;20043;-71
2023/04/05 00:29:55;;;;;;;21.35;11.20;;;4.20;99.90;;;;;;5092106;28;20055;-72
2023/04/05 00:32:21;;;;;;;24.35;12.18;;;4.20;99.90;;;;;;5112671;28;20024;-71
2023/04/05 00:34:46;;;;;;;21.83;11.68;;;4.10;99.90;;;;;;5103417;28;20032;-72
2023/04/05 00:37:12;;;;;;;23.08;12.35;;;4.10;99.90;;;;;;5097103;28;20455;-72
2023/04/05 00:39:40;;;;;;;20.23;11.43;;;4.10;99.90;;;;;;5114489;28;20109;-72
2023/04/05 00:42:06;;;;;;;20.38;12.32;;;4.10;99.90;;;;;;5113904;28;20146;-72
2023/04/05 00:44:35;;;;;;;22.02;12.23;;;4.10;99.90;;;;;;5113905;28;20097;-72
2023/04/05 00:47:02;;;;;;;23.23;12.07;;;4.10;99.90;;;;;;5114307;28;20048;-72
2023/04/05 00:49:32;;;;;;;18.33;11.75;;;4.00;99.90;;;;;;5114970;28;20059;-72
2023/04/05 00:51:58;;;;;;;22.52;12.40;;;4.10;99.90;;;;;;5112468;28;21307;-71
2023/04/05 00:54:28;;;;;;;21.17;11.82;;;4.00;99.90;;;;;;5113192;28;20026;-72
2023/04/05 00:56:58;;;;;;;21.30;11.18;;;4.00;99.90;;;;;;5112916;28;20024;-72
2023/04/05 00:59:25;;;;;;;21.85;11.90;;;4.00;99.90;;;;;;5103964;28;20043;-72
2023/04/05 01:02:06;;;;;;;20.70;11.75;;;4.00;99.90;;;;;;5127044;27;20024;-72
2023/04/05 01:04:35;;;;;;;19.10;11.57;;;3.90;99.90;;;;;;5106268;28;20020;-72
2023/04/05 01:07:16;;;;;;;21.65;10.75;;;3.90;99.90;;;;;;5109347;28;20379;-72
2023/04/05 01:09:52;;;;;;;18.60;11.20;;;3.90;99.90;;;;;;5113832;28;20023;-72
2023/04/05 01:12:19;;;;;;;18.35;11.10;;;3.80;99.90;;;;;;5104280;28;20506;-72
2023/04/05 01:14:48;;;;;;;20.13;11.95;;;3.80;99.90;;;;;;5109583;28;20032;-72
2023/04/05 01:17:20;;;;;;;22.65;11.75;;;3.80;99.90;;;;;;5100190;28;20036;-72
2023/04/05 01:19:57;;;;;;;20.88;11.38;;;3.80;99.90;;;;;;5100497;28;20036;-72
2023/04/05 01:22:39;;;;;;;21.30;11.75;;;3.80;99.90;;;;;;5094370;28;20020;-72
2023/04/05 01:25:19;;;;;;;19.77;11.52;;;3.80;99.90;;;;;;5105985;28;20427;-72
2023/04/05 01:27:57;;;;;;;20.10;10.75;;;3.80;99.90;;;;;;5100516;28;20052;-72
2023/04/05 01:30:33;;;;;;;22.92;11.70;;;3.70;99.90;;;;;;5113592;28;20027;-72
2023/04/05 01:33:41;;;;;;;22.20;10.93;;;3.70;99.90;;;;;;5088699;28;20462;-72
2023/04/05 01:36:22;;;;;;;18.10;11.00;;;3.70;99.90;;;;;;5098072;28;20097;-72
2023/04/05 01:38:49;;;;;;;19.80;11.30;;;3.70;99.90;;;;;;5102329;28;20027;-72
2023/04/05 01:41:15;;;;;;;20.75;11.02;;;3.60;99.90;;;;;;5106688;28;20103;-72
2023/04/05 01:43:40;;;;;;;19.90;11.23;;;3.60;99.90;;;;;;5113069;28;20095;-72
2023/04/05 01:46:06;;;;;;;20.00;11.45;;;3.60;99.90;;;;;;5112731;28;20219;-72
2023/04/05 01:48:32;;;;;;;21.02;10.95;;;3.60;99.90;;;;;;5109099;28;20571;-73
2023/04/05 01:50:57;;;;;;;20.92;11.27;;;3.60;99.90;;;;;;5113129;28;20028;-72
2023/04/05 01:53:23;;;;;;;21.73;11.15;;;3.60;99.90;;;;;;5102037;28;20050;-72
2023/04/05 01:55:49;;;;;;;19.60;10.70;;;3.60;99.90;;;;;;5113440;28;20466;-72
2023/04/05 01:58:14;;;;;;;20.95;11.00;;;3.50;99.90;;;;;;5099799;28;20065;-72
2023/04/05 02:00:40;;;;;;;19.83;10.93;;;3.50;99.90;;;;;;5113001;28;20038;-72
2023/04/05 02:03:05;;;;;;;20.25;10.68;;;3.50;99.90;;;;;;5109315;28;20035;-72
2023/04/05 02:05:31;;;;;;;25.80;11.15;;;3.40;99.90;;;;;;5100057;28;20036;-72
2023/04/05 02:07:56;;;;;;;18.80;10.27;;;3.40;99.90;;;;;;5113210;28;20020;-72
2023/04/05 02:10:24;;;;;;;20.35;9.95;;;3.40;99.90;;;;;;5094771;28;20064;-72
2023/04/05 02:12:50;;;;;;;18.90;10.13;;;3.40;99.90;;;;;;5087966;28;20020;-72
2023/04/05 02:15:15;;;;;;;18.27;10.18;;;3.40;99.90;;;;;;5109276;28;20039;-72
2023/04/05 02:17:44;;;;;;;18.10;10.68;;;3.40;99.90;;;;;;5112843;28;20150;-72
2023/04/05 02:20:13;;;;;;;17.20;9.45;;;3.30;99.90;;;;;;5094614;28;20008;-72
2023/04/05 02:22:39;;;;;;;18.10;9.32;;;3.30;99.90;;;;;;5112809;28;20524;-72
2023/04/05 02:25:08;;;;;;;19.60;10.48;;;3.30;99.90;;;;;;5112374;28;20042;-72
2023/04/05 02:27:35;;;;;;;19.05;9.75;;;3.30;99.90;;;;;;5112714;28;20073;-72
2023/04/05 02:30:01;;;;;;;15.95;9.32;;;3.30;99.90;;;;;;5112871;28;20514;-72
2023/04/05 02:32:27;;;;;;;18.90;9.40;;;3.20;99.90;;;;;;5109898;28;20320;-72
2023/04/05 02:34:52;;;;;;;18.45;9.88;;;3.30;99.90;;;;;;5112505;28;20042;-72
2023/04/05 02:37:21;;;;;;;19.90;9.57;;;3.30;99.90;;;;;;5090625;28;20119;-72
2023/04/05 02:39:47;;;;;;;20.13;10.15;;;3.20;99.90;;;;;;5083645;28;20598;-72
2023/04/05 02:42:12;;;;;;;16.63;10.00;;;3.20;99.90;;;;;;5108716;28;20024;-72
2023/04/05 02:44:38;;;;;;;19.95;9.98;;;3.20;99.90;;;;;;5108408;28;20413;-72
2023/04/05 02:47:04;;;;;;;20.23;9.88;;;3.20;99.90;;;;;;5083666;28;20048;-72
2023/04/05 02:49:29;;;;;;;20.67;9.63;;;3.20;99.90;;;;;;5096664;28;20024;-72
2023/04/05 02:51:55;;;;;;;16.58;9.40;;;3.20;99.90;;;;;;5103031;28;20027;-72
2023/04/05 02:54:21;;;;;;;14.40;9.32;;;3.20;99.90;;;;;;5093313;28;20111;-72
2023/04/05 02:56:48;;;;;;;20.23;9.90;;;3.20;99.90;;;;;;5112121;28;20486;-72
2023/04/05 02:59:14;;;;;;;16.33;9.05;;;3.10;99.90;;;;;;5109488;28;20020;-72
2023/04/05 03:01:43;;;;;;;19.08;10.20;;;3.20;99.90;;;;;;5102670;28;20459;-72
2023/04/05 03:04:11;;;;;;;18.42;9.25;;;3.10;99.90;;;;;;5111119;28;20024;-72
2023/04/05 03:06:37;;;;;;;18.20;9.75;;;3.10;99.90;;;;;;5112112;28;20077;-72
2023/04/05 03:09:03;;;;;;;17.55;9.48;;;3.10;99.90;;;;;;5109923;28;20019;-72
2023/04/05 03:11:29;;;;;;;17.52;10.18;;;3.10;99.90;;;;;;5107064;28;20023;-73
2023/04/05 03:13:55;;;;;;;18.27;9.85;;;3.10;99.90;;;;;;5111777;28;20532;-72
2023/04/05 03:16:21;;;;;;;17.08;9.70;;;3.10;99.90;;;;;;5091663;28;20023;-73
2023/04/05 03:18:48;;;;;;;16.65;9.93;;;3.10;99.90;;;;;;5103902;28;20538;-72
2023/04/05 03:21:16;;;;;;;18.65;9.70;;;3.10;99.90;;;;;;5093439;28;20089;-72
2023/04/05 03:23:42;;;;;;;16.70;9.77;;;3.00;99.90;;;;;;5111714;28;20589;-72
2023/04/05 03:26:09;;;;;;;17.00;8.98;;;3.00;99.90;;;;;;5106619;28;20032;-72
2023/04/05 03:28:34;;;;;;;16.05;9.10;;;3.00;99.90;;;;;;5104122;28;20557;-72
2023/04/05 03:31:00;;;;;;;18.48;10.02;;;3.00;99.90;;;;;;5105730;28;20016;-72
2023/04/05 03:33:26;;;;;;;18.88;9.50;;;3.00;99.90;;;;;;5093249;28;20023;-72
2023/04/05 03:35:51;;;;;;;17.17;9.15;;;2.90;99.90;;;;;;5110477;28;20028;-72
2023/04/05 03:38:17;;;;;;;19.77;9.93;;;2.90;99.90;;;;;;5115676;28;20019;-72
2023/04/05 03:40:43;;;;;;;18.33;9.40;;;2.90;99.90;;;;;;5114657;28;20030;-72
2023/04/05 03:43:08;;;;;;;18.92;9.50;;;2.90;99.90;;;;;;5100939;28;20023;-72
2023/04/05 03:45:34;;;;;;;15.13;9.07;;;2.80;99.90;;;;;;5115468;28;20040;-72
2023/04/05 03:48:01;;;;;;;17.65;9.38;;;2.80;99.90;;;;;;5109976;28;20040;-72
2023/04/05 03:50:27;;;;;;;17.00;9.35;;;2.80;99.90;;;;;;5114492;28;20036;-72
2023/04/05 03:52:53;;;;;;;18.88;9.40;;;2.80;99.90;;;;;;5114627;28;20501;-73
2023/04/05 03:55:18;;;;;;;19.70;10.32;;;2.70;99.90;;;;;;5112616;28;20058;-72
2023/04/05 03:57:44;;;;;;;19.42;9.98;;;2.80;99.90;;;;;;5114070;28;20028;-72
2023/04/05 04:00:14;;;;;;;18.70;9.40;;;2.70;99.90;;;;;;5116333;28;20521;-72
2023/04/05 04:02:43;;;;;;;16.95;9.73;;;2.70;99.90;;;;;;5100201;28;20546;-72
2023/04/05 04:05:10;;;;;;;17.33;9.35;;;2.70;99.90;;;;;;5109402;28;20043;-72
2023/04/05 04:07:36;;;;;;;17.25;9.43;;;2.70;99.90;;;;;;5110605;28;20486;-72
2023/04/05 04:10:04;;;;;;;19.15;9.50;;;2.70;99.90;;;;;;5098076;28;20030;-72
2023/04/05 04:12:30;;;;;;;16.27;9.27;;;2.60;99.90;;;;;;5105596;28;20119;-72
2023/04/05 04:14:55;;;;;;;18.05;9.55;;;2.60;99.90;;;;;;5111873;28;20103;-72
2023/04/05 04:17:28;;;;;;;18.02;9.43;;;2.60;99.90;;;;;;5115356;28;20024;-72
2023/04/05 04:19:56;;;;;;;17.10;9.60;;;2.60;99.90;;;;;;5115170;28;20016;-72
2023/04/05 04:22:25;;;;;;;17.95;9.82;;;2.60;99.90;;;;;;5115604;28;20024;-72
2023/04/05 04:24:54;;;;;;;18.35;10.63;;;2.50;99.90;;;;;;5110315;28;20031;-72
2023/04/05 04:27:20;;;;;;;21.42;10.75;;;2.50;99.90;;;;;;5109150;28;20043;-72
2023/04/05 04:29:48;;;;;;;23.48;10.98;;;2.50;99.90;;;;;;5098446;28;20394;-72
2023/04/05 04:32:15;;;;;;;19.50;10.77;;;2.50;99.90;;;;;;5097742;28;20023;-72
2023/04/05 04:34:43;;;;;;;21.00;11.65;;;2.40;99.90;;;;;;5099245;28;20099;-72
2023/04/05 04:37:21;;;;;;;18.73;10.05;;;2.40;99.90;;;;;;5109473;28;20110;-72
2023/04/05 04:39:48;;;;;;;18.02;10.45;;;2.40;99.90;;;;;;5110334;28;21152;-72
2023/04/05 04:42:18;;;;;;;19.13;10.93;;;2.40;99.90;;;;;;5114997;28;20110;-72
2023/04/05 04:44:44;;;;;;;18.83;10.90;;;2.40;99.90;;;;;;5114299;28;20050;-72
2023/04/05 04:47:12;;;;;;;17.50;10.38;;;2.40;99.90;;;;;;5108347;28;20043;-72
2023/04/05 04:49:40;;;;;;;20.50;11.00;;;2.40;99.90;;;;;;5114777;28;20076;-72
2023/04/05 04:52:06;;;;;;;21.42;11.30;;;2.40;99.90;;;;;;5103551;28;20522;-72
2023/04/05 04:54:33;;;;;;;19.35;10.63;;;2.40;99.90;;;;;;5103438;28;20317;-72
2023/04/05 04:57:00;;;;;;;20.08;11.10;;;2.40;99.90;;;;;;5114585;28;20039;-72
2023/04/05 04:59:26;;;;;;;21.48;10.45;;;2.40;99.90;;;;;;5108935;28;20058;-71
2023/04/05 05:01:52;;;;;;;21.33;11.40;;;2.40;99.90;;;;;;5096160;28;20044;-72
2023/04/05 05:04:18;;;;;;;24.50;11.63;;;2.40;99.90;;;;;;5114344;28;20027;-72
2023/04/05 05:06:43;;;;;;;20.45;10.85;;;2.40;99.90;;;;;;5110053;28;20016;-72
2023/04/05 05:09:09;;;;;;;22.83;11.25;;;2.40;99.90;;;;;;5108701;28;20032;-72
2023/04/05 05:11:34;;;;;;;27.15;11.45;;;2.30;99.90;;;;;;5114682;28;20400;-72
2023/04/05 05:14:00;;;;;;;24.02;11.93;;;2.30;99.90;;;;;;5114308;28;20042;-71
2023/04/05 05:16:26;;;;;;;25.17;11.07;;;2.30;99.90;;;;;;5113914;28;20020;-72
2023/04/05 05:18:53;;;;;;;22.45;11.15;;;2.30;99.90;;;;;;5105245;28;20461;-72
2023/04/05 05:21:18;;;;;;;20.30;11.75;;;2.30;99.90;;;;;;5097546;28;20408;-72
2023/04/05 05:23:44;;;;;;;20.15;11.18;;;2.30;99.90;;;;;;5104928;28;20028;-71
2023/04/05 05:26:11;;;;;;;20.08;10.77;;;2.30;99.90;;;;;;5109933;28;20405;-71
2023/04/05 05:28:38;;;;;;;23.13;11.77;;;2.30;99.90;;;;;;5109671;28;20024;-72
2023/04/05 05:31:04;;;;;;;20.65;10.80;;;2.30;99.90;;;;;;5113692;28;20023;-72
2023/04/05 05:33:29;;;;;;;21.52;10.95;;;2.30;99.90;;;;;;5101014;28;20012;-72
2023/04/05 05:35:55;;;;;;;19.95;11.07;;;2.30;99.90;;;;;;5105873;28;20024;-72
2023/04/05 05:38:21;;;;;;;22.83;11.48;;;2.30;99.90;;;;;;5112363;28;20055;-72
2023/04/05 05:40:46;;;;;;;19.83;10.95;;;2.30;99.90;;;;;;5112295;28;20019;-72
2023/04/05 05:43:12;;;;;;;19.00;10.45;;;2.30;99.90;;;;;;5104558;28;20023;-71
2023/04/05 05:45:38;;;;;;;17.10;10.73;;;2.30;99.90;;;;;;5104521;28;20070;-72
2023/04/05 05:48:03;;;;;;;24.58;11.45;;;2.30;99.90;;;;;;5107471;28;20040;-71
2023/04/05 05:50:32;;;;;;;23.13;11.88;;;2.30;99.90;;;;;;5105575;28;20058;-71
2023/04/05 05:53:00;;;;;;;24.02;12.30;;;2.40;99.90;;;;;;5107502;28;20020;-71
2023/04/05 05:55:26;;;;;;;21.58;12.18;;;2.40;99.90;;;;;;5090817;28;20106;-71
2023/04/05 05:57:51;;;;;;;20.08;11.10;;;2.40;99.90;;;;;;5102985;28;20119;-72
2023/04/05 06:00:19;;;;;;;23.60;12.00;;;2.40;99.90;;;;;;5094165;28;20036;-72
2023/04/05 06:02:44;;;;;;;19.83;12.15;;;2.50;99.90;;;;;;5108043;28;20490;-72
2023/04/05 06:05:10;;;;;;;20.98;11.88;;;2.50;99.90;;;;;;5081981;28;20039;-72
2023/04/05 06:07:37;;;;;;;28.23;12.77;;;2.50;99.90;;;;;;5097700;28;20024;-71
2023/04/05 06:10:05;;;;;;;24.10;12.45;;;2.60;99.90;;;;;;5105842;28;20039;-72
2023/04/05 06:12:30;;;;;;;22.10;12.65;;;2.60;99.90;;;;;;5094392;28;20019;-72
2023/04/05 06:14:56;;;;;;;24.92;13.43;;;2.60;99.90;;;;;;5093634;28;20451;-71
2023/04/05 06:17:21;;;;;;;23.08;12.05;;;2.70;99.90;;;;;;5108818;28;20056;-71
2023/04/05 06:19:47;;;;;;;24.63;12.90;;;2.70;99.90;;;;;;5104926;28;20028;-71
2023/04/05 06:22:13;;;;;;;24.00;13.73;;;2.70;99.90;;;;;;5095644;28;20403;-72
2023/04/05 06:24:38;;;;;;;24.45;13.18;;;2.70;99.90;;;;;;5110456;28;20106;-72
2023/04/05 06:27:04;;;;;;;22.52;12.77;;;2.80;99.90;;;;;;5111484;28;20034;-73
2023/04/05 06:29:31;;;;;;;30.10;14.15;;;2.80;99.90;;;;;;5111365;28;20024;-73
2023/04/05 06:31:57;;;;;;;26.90;15.13;;;2.90;99.90;;;;;;5105753;28;20035;-73
2023/04/05 06:34:22;;;;;;;27.23;14.15;;;2.90;99.90;;;;;;5111808;28;20015;-72
2023/04/05 06:36:48;;;;;;;23.67;14.73;;;2.90;99.90;;;;;;5111685;28;20031;-73
2023/04/05 06:39:13;;;;;;;26.50;15.93;;;3.00;99.90;;;;;;5111634;28;20111;-72
2023/04/05 06:41:39;;;;;;;31.80;17.20;;;3.10;99.90;;;;;;5110990;28;20115;-73
2023/04/05 06:44:05;;;;;;;32.40;17.75;;;3.10;99.90;;;;;;5112131;28;20096;-73
2023/04/05 06:46:31;;;;;;;30.88;16.83;;;3.20;99.90;;;;;;5109933;28;20051;-73
2023/04/05 06:48:58;;;;;;;27.55;16.95;;;3.20;99.90;;;;;;5111130;28;20433;-72
2023/04/05 06:51:25;;;;;;;27.75;17.33;;;3.30;99.90;;;;;;5103278;28;20463;-72
2023/04/05 06:53:51;;;;;;;31.48;18.00;;;3.40;99.90;;;;;;5087499;28;20069;-73
2023/04/05 06:56:16;;;;;;;27.83;17.10;;;3.40;99.90;;;;;;5088559;28;20028;-73
2023/04/05 06:58:43;;;;;;;34.92;18.33;;;3.50;99.90;;;;;;5111935;28;20020;-73
2023/04/05 07:01:09;;;;;;;35.33;19.13;;;3.50;99.90;;;;;;5109769;28;20112;-73
2023/04/05 07:03:35;;;;;;;31.33;18.08;;;3.60;99.90;;;;;;5103751;28;20430;-73
2023/04/05 07:06:01;;;;;;;33.85;19.15;;;3.70;99.90;;;;;;5091834;28;20324;-73
2023/04/05 07:08:30;;;;;;;34.65;19.30;;;3.70;99.90;;;;;;5103692;28;20085;-73
2023/04/05 07:10:55;;;;;;;38.13;19.55;;;3.80;99.90;;;;;;5091352;28;20023;-73
2023/04/05 07:13:22;;;;;;;35.45;20.80;;;3.90;99.90;;;;;;5110535;28;20046;-73
2023/04/05 07:15:48;;;;;;;35.85;19.27;;;3.90;99.90;;;;;;5090787;28;20028;-73
2023/04/05 07:18:17;;;;;;;33.85;20.17;;;4.00;99.90;;;;;;5100909;28;20103;-73
2023/04/05 07:20:46;;;;;;;36.13;20.77;;;4.10;99.90;;;;;;5088526;28;20076;-73
2023/04/05 07:23:12;;;;;;;35.63;20.67;;;4.10;99.90;;;;;;5106673;28;20390;-73
2023/04/05 07:25:41;;;;;;;36.03;19.95;;;4.20;99.90;;;;;;5098002;28;20024;-73
2023/04/05 07:28:06;;;;;;;36.00;19.83;;;4.30;99.90;;;;;;5102827;28;20024;-73
2023/04/05 07:30:32;;;;;;;38.35;20.52;;;4.40;99.90;;;;;;5102878;28;20354;-73
2023/04/05 07:32:58;;;;;;;33.50;19.10;;;4.50;99.90;;;;;;5111171;28;20137;-73
2023/04/05 07:35:24;;;;;;;34.67;19.05;;;4.50;99.90;;;;;;5107613;28;20023;-73
2023/04/05 07:37:51;;;;;;;40.63;18.45;;;4.60;99.90;;;;;;5102971;28;20032;-73
2023/04/05 07:40:17;;;;;;;28.05;18.38;;;4.80;99.90;;;;;;5087293;28;20012;-73
2023/04/05 07:42:42;;;;;;;30.70;17.13;;;4.90;99.90;;;;;;5109392;28;20042;-73
2023/04/05 07:45:08;;;;;;;31.48;16.88;;;5.00;99.90;;;;;;5110728;28;20031;-73
2023/04/05 07:47:35;;;;;;;33.33;15.98;;;5.10;99.90;;;;;;5092388;28;20062;-73
2023/04/05 07:50:02;;;;;;;28.35;15.50;;;5.20;99.90;;;;;;5109436;28;20024;-73
2023/04/05 07:52:27;;;;;;;26.52;15.60;;;5.30;99.90;;;;;;5102986;28;20024;-73
2023/04/05 07:54:54;;;;;;;24.80;14.98;;;5.40;99.90;;;;;;5104560;28;20467;-72
2023/04/05 07:57:20;;;;;;;26.10;15.98;;;5.50;99.90;;;;;;5101430;28;20081;-73
2023/04/05 07:59:49;;;;;;;27.33;15.82;;;5.70;99.90;;;;;;5111774;28;20403;-73
2023/04/05 08:02:15;;;;;;;29.83;15.07;;;5.80;99.90;;;;;;5101689;28;20020;-73
2023/04/05 08:04:41;;;;;;;25.63;14.77;;;5.90;99.90;;;;;;5106566;28;20034;-72
2023/04/05 08:07:06;;;;;;;27.70;15.50;;;6.10;99.90;;;;;;5098024;28;20030;-73
2023/04/05 08:09:32;;;;;;;25.27;15.23;;;6.30;99.90;;;;;;5111252;28;20050;-73
2023/04/05 08:11:58;;;;;;;24.95;15.20;;;6.40;99.90;;;;;;5110258;28;20528;-73
2023/04/05 08:14:24;;;;;;;28.35;14.68;;;6.70;99.90;;;;;;5104433;28;20032;-73
2023/04/05 08:16:50;;;;;;;23.35;14.43;;;6.80;99.90;;;;;;5108926;28;20035;-73
2023/04/05 08:19:16;;;;;;;24.42;14.82;;;7.10;99.90;;;;;;5111158;28;20630;-72
2023/04/05 08:21:42;;;;;;;24.85;15.20;;;7.30;99.90;;;;;;5113632;28;20045;-73
2023/04/05 08:24:07;;;;;;;22.98;14.07;;;7.50;99.90;;;;;;5114976;28;20355;-73
2023/04/05 08:26:33;;;;;;;20.50;13.02;;;7.70;99.90;;;;;;5112884;28;20112;-73
2023/04/05 08:28:59;;;;;;;22.50;13.27;;;7.80;99.90;;;;;;5085629;28;20484;-73
2023/04/05 08:31:24;;;;;;;20.25;12.63;;;8.00;99.90;;;;;;5114227;28;20054;-73
2023/04/05 08:33:50;;;;;;;21.65;13.13;;;8.00;99.90;;;;;;5112351;28;20023;-73
2023/04/05 08:36:16;;;;;;;18.75;12.32;;;8.10;99.90;;;;;;5109250;28;20031;-73
2023/04/05 08:38:41;;;;;;;22.75;12.57;;;8.30;99.90;;;;;;5115009;28;20023;-73
2023/04/05 08:41:07;;;;;;;23.67;12.63;;;8.40;99.90;;;;;;5108812;28;20101;-72
2023/04/05 08:43:54;;;;;;;21.80;13.38;;;8.60;99.90;;;;;;5111453;28;20058;-73
2023/04/05 08:46:21;;;;;;;20.65;13.07;;;8.70;99.90;;;;;;5112701;28;20043;-73
2023/04/05 08:48:47;;;;;;;22.67;13.45;;;8.90;99.90;;;;;;5114422;28;20028;-73
2023/04/05 08:51:16;;;;;;;19.90;12.57;;;9.10;99.90;;;;;;5107017;28;20032;-73
2023/04/05 08:53:42;;;;;;;23.45;11.90;;;9.30;99.90;;;;;;5105709;27;20042;-73
2023/04/05 08:56:09;;;;;;;20.30;11.88;;;9.50;99.90;;;;;;5105568;28;20103;-73
2023/04/05 08:58:37;;;;;;;20.83;12.77;;;9.70;99.90;;;;;;5113704;28;20088;-73
2023/04/05 09:01:04;;;;;;;21.48;12.73;;;9.90;99.90;;;;;;5089492;28;20015;-73
2023/04/05 09:03:38;;;;;;;21.88;11.45;;;10.00;99.90;;;;;;5113060;28;20091;-73
2023/04/05 09:06:08;;;;;;;20.65;12.45;;;10.10;99.90;;;;;;5109981;28;20048;-73
2023/04/05 09:08:33;;;;;;;17.70;11.43;;;10.10;99.90;;;;;;5095838;28;20132;-73
2023/04/05 09:10:59;;;;;;;19.70;11.55;;;10.20;99.90;;;;;;5113549;28;20428;-73
2023/04/05 09:13:25;;;;;;;20.88;11.45;;;10.20;99.90;;;;;;5110403;28;20072;-73
2023/04/05 09:15:51;;;;;;;20.13;11.27;;;10.40;99.90;;;;;;5114251;28;20519;-73
2023/04/05 09:18:16;;;;;;;20.27;12.27;;;10.50;99.90;;;;;;5109718;28;20110;-73
2023/04/05 09:20:42;;;;;;;22.42;11.80;;;10.50;99.90;;;;;;5109614;27;20754;-72
2023/04/05 09:23:08;;;;;;;21.58;11.82;;;10.60;99.90;;;;;;5114206;27;20386;-73
2023/04/05 09:25:38;;;;;;;25.63;12.38;;;10.70;99.90;;;;;;5103209;28;20024;-73
2023/04/05 09:28:08;;;;;;;18.85;11.95;;;10.90;99.90;;;;;;5109552;28;20450;-70
2023/04/05 09:30:36;;;;;;;22.02;11.63;;;10.90;99.90;;;;;;5113606;28;20019;-73
2023/04/05 09:33:03;;;;;;;19.35;12.70;;;10.90;99.90;;;;;;5108176;28;20635;-73
2023/04/05 09:35:30;;;;;;;20.10;11.95;;;10.90;99.90;;;;;;5104603;28;20030;-73
2023/04/05 09:37:58;;;;;;;23.08;12.65;;;11.00;99.90;;;;;;5103272;28;20438;-70
2023/04/05 09:40:43;;;;;;;21.10;13.50;;;11.10;98.80;;;;;;5108872;28;20355;-70
2023/04/05 09:43:10;;;;;;;19.13;12.13;;;11.10;98.60;;;;;;5112143;28;20351;-70
2023/04/05 09:45:41;;;;;;;20.15;12.55;;;11.20;98.70;;;;;;5105375;28;20031;-73
2023/04/05 09:48:08;;;;;;;19.83;12.57;;;11.30;97.40;;;;;;5113600;28;20441;-73
2023/04/05 09:50:34;;;;;;;21.27;12.10;;;11.50;97.20;;;;;;5094810;28;20031;-73
2023/04/05 09:53:14;;;;;;;20.60;11.60;;;11.60;97.30;;;;;;5113247;28;20110;-70
2023/04/05 09:55:41;;;;;;;19.55;11.73;;;11.80;97.20;;;;;;5106685;28;20454;-74
2023/04/05 09:58:21;;;;;;;21.15;11.55;;;12.10;96.80;;;;;;5107041;28;20119;-74
2023/04/05 10:00:52;;;;;;;22.55;11.55;;;12.30;95.50;;;;;;5113600;28;20097;-78
2023/04/05 10:03:18;;;;;;;22.30;11.88;;;12.40;94.90;;;;;;5111294;28;20080;-73
2023/04/05 10:05:44;;;;;;;23.27;12.90;;;12.50;93.30;;;;;;5108709;28;20051;-70
2023/04/05 10:08:10;;;;;;;21.25;12.50;;;12.50;91.80;;;;;;5100809;28;20028;-73
2023/04/05 10:10:45;;;;;;;18.38;12.15;;;12.40;91.20;;;;;;5112860;28;20486;-70
2023/04/05 10:13:11;;;;;;;21.23;13.07;;;12.30;90.90;;;;;;5113221;28;20024;-70
2023/04/05 10:15:36;;;;;;;20.20;13.20;;;12.30;90.50;;;;;;5110675;28;20097;-70
2023/04/05 10:18:28;;;;;;;23.05;12.77;;;12.30;90.70;;;;;;5094586;28;20024;-70
2023/04/05 10:20:56;;;;;;;21.95;13.15;;;12.40;87.80;;;;;;5093834;28;20118;-70
2023/04/05 10:23:30;;;;;;;20.88;12.45;;;12.50;88.80;;;;;;5111793;28;20060;-73
2023/04/05 10:26:24;;;;;;;20.40;11.75;;;12.60;88.40;;;;;;5109620;28;20031;-70
2023/04/05 10:29:06;;;;;;;19.83;13.18;;;12.70;84.10;;;;;;5097102;28;20035;-73
2023/04/05 10:31:54;;;;;;;22.35;13.85;;;12.80;84.30;;;;;;5108335;28;20023;-73
2023/04/05 10:34:42;;;;;;;22.58;13.02;;;12.90;82.90;;;;;;5110580;28;20554;-70
2023/04/05 10:37:32;;;;;;;24.45;13.00;;;12.80;82.00;;;;;;5111182;28;20031;-73
2023/04/05 10:40:02;;;;;;;20.58;12.82;;;12.80;81.30;;;;;;5099578;28;20035;-70
2023/04/05 10:42:40;;;;;;;23.30;13.40;;;12.80;81.60;;;;;;5100273;28;20059;-73
2023/04/05 10:45:10;;;;;;;17.25;11.93;;;12.90;82.60;;;;;;5093946;28;20058;-72
2023/04/05 10:47:47;;;;;;;17.88;11.93;;;13.10;82.70;;;;;;5098376;28;20051;-73
2023/04/05 10:50:20;;;;;;;18.30;12.30;;;13.30;80.70;;;;;;5099274;28;20028;-73
2023/04/05 10:52:47;;;;;;;19.33;12.98;;;13.40;79.90;;;;;;5102301;28;20108;-72
2023/04/05 10:55:14;;;;;;;20.85;11.90;;;13.50;75.90;;;;;;5082888;28;20126;-72
2023/04/05 10:57:40;;;;;;;19.15;12.43;;;13.50;77.00;;;;;;5109718;28;20023;-72
2023/04/05 11:00:06;;;;;;;19.77;12.10;;;13.50;73.40;;;;;;5110557;28;20115;-72
2023/04/05 11:02:32;;;;;;;22.70;12.23;;;13.50;72.10;;;;;;5108586;28;20099;-72
2023/04/05 11:05:03;;;;;;;16.83;11.65;;;13.50;71.10;;;;;;5105821;27;20154;-72
2023/04/05 11:07:42;;;;;;;20.60;12.15;;;13.50;70.60;;;;;;5108824;28;20031;-72
2023/04/05 11:10:16;;;;;;;18.35;11.32;;;13.70;72.50;;;;;;5107570;28;20039;-72
2023/04/05 11:12:47;;;;;;;17.83;11.63;;;13.80;70.20;;;;;;5105948;28;20038;-72
2023/04/05 11:15:27;;;;;;;19.15;11.73;;;13.70;65.20;;;;;;5111364;28;20440;-72
2023/04/05 11:18:08;;;;;;;18.95;11.85;;;13.60;65.30;;;;;;5105011;28;20038;-72
2023/04/05 11:20:47;;;;;;;23.20;11.32;;;13.60;66.10;;;;;;5107425;28;20028;-72
2023/04/05 11:23:18;;;;;;;18.52;10.77;;;13.70;65.60;;;;;;5104215;28;20027;-73
2023/04/05 11:26:03;;;;;;;18.55;11.10;;;13.80;65.00;;;;;;5103210;28;20042;-73
2023/04/05 11:28:36;;;;;;;17.38;11.77;;;13.90;66.00;;;;;;5097406;28;20028;-72
2023/04/05 11:31:19;;;;;;;17.60;11.07;;;14.00;64.20;;;;;;5107990;28;20043;-73
2023/04/05 11:33:45;;;;;;;20.15;11.82;;;14.00;63.20;;;;;;5106111;28;20058;-74
2023/04/05 11:36:11;;;;;;;20.95;12.43;;;14.10;63.30;;;;;;5110804;28;20084;-74
2023/04/05 11:38:39;;;;;;;20.83;12.93;;;14.30;63.40;;;;;;5085512;28;20103;-74
2023/04/05 11:41:19;;;;;;;20.23;12.27;;;14.40;63.50;;;;;;5107721;28;20735;-74
2023/04/05 11:43:46;;;;;;;21.13;12.48;;;14.50;61.60;;;;;;5111528;28;20140;-73
2023/04/05 11:46:14;;;;;;;18.33;12.15;;;14.50;60.90;;;;;;5109540;28;20048;-74
2023/04/05 11:48:41;;;;;;;21.00;12.93;;;14.40;60.00;;;;;;5111457;28;20077;-74
2023/04/05 11:51:08;;;;;;;19.95;12.55;;;14.30;59.20;;;;;;5110157;28;20015;-74
2023/04/05 11:53:34;;;;;;;20.48;13.07;;;14.20;59.40;;;;;;5111320;28;20028;-74
2023/04/05 11:56:07;;;;;;;22.50;12.73;;;14.20;59.40;;;;;;5111109;28;20078;-74
2023/04/05 11:58:33;;;;;;;18.75;12.93;;;14.20;59.20;;;;;;5113735;28;20023;-74
2023/04/05 12:01:06;;;;;;;23.08;14.05;;;14.20;59.10;;;;;;5114029;28;20012;-74
2023/04/05 12:03:32;;;;;;;19.92;12.85;;;14.20;59.10;;;;;;5097009;28;20036;-74
2023/04/05 12:06:00;;;;;;;21.30;12.50;;;14.30;60.90;;;;;;5109620;28;20016;-73
2023/04/05 12:08:42;;;;;;;19.67;11.90;;;14.40;58.90;;;;;;5108258;28;20016;-74
2023/04/05 12:11:10;;;;;;;18.73;12.52;;;14.60;58.70;;;;;;5103470;28;20100;-74
2023/04/05 12:13:36;;;;;;;19.05;12.15;;;14.60;57.90;;;;;;5114729;28;20728;-73
2023/04/05 12:16:04;;;;;;;19.92;12.73;;;14.60;57.70;;;;;;5115478;28;20047;-74
2023/04/05 12:18:33;;;;;;;20.67;12.27;;;14.60;57.10;;;;;;5109479;28;20485;-73
2023/04/05 12:21:00;;;;;;;19.35;12.45;;;14.60;56.80;;;;;;5115218;28;20016;-73
2023/04/05 12:23:26;;;;;;;20.30;12.95;;;14.50;57.10;;;;;;5101728;28;20032;-73
2023/04/05 12:25:54;;;;;;;19.48;12.65;;;14.40;57.40;;;;;;5103258;28;20051;-73
2023/04/05 12:28:20;;;;;;;23.70;13.43;;;14.40;56.80;;;;;;5102955;28;20030;-71
2023/04/05 12:30:52;;;;;;;19.67;12.43;;;14.30;56.60;;;;;;5111489;28;20031;-71
2023/04/05 12:33:32;;;;;;;22.23;12.88;;;14.30;57.10;;;;;;5108166;28;20020;-71
2023/04/05 12:36:03;;;;;;;24.75;12.68;;;14.30;57.20;;;;;;5112480;28;20028;-72
2023/04/05 12:38:29;;;;;;;20.13;12.13;;;14.40;57.10;;;;;;5110256;28;20044;-72
2023/04/05 12:41:02;;;;;;;21.15;12.75;;;14.50;57.50;;;;;;5114412;28;20012;-72